Time;durP1;ratioP1;P1;durP2;ratioP2;P2;SDS_P1;SDS_P2;PMS_P1;PMS_P2;Temp;Humidity;BMP_temperature;BMP_pressure;BME280_temperature;BME280_humidity;BME280_pressure;Samples;Min_cycle;Max_cycle;Signal;HPM_P1;HPM_P2
2024/01/12 00:01:58;;;;;;;1999.90;999.90;;;1.60;99.90;;;;;;5069474;28;20419;-75
2024/01/12 00:04:25;;;;;;;1999.90;999.90;;;1.50;99.90;;;;;;5080644;28;20934;-73
2024/01/12 00:06:52;;;;;;;1999.90;999.90;;;1.50;99.90;;;;;;5089228;28;20410;-72
2024/01/12 00:09:20;;;;;;;1999.90;999.90;;;1.60;99.90;;;;;;5072421;28;20433;-74
2024/01/12 00:11:46;;;;;;;1999.90;999.90;;;1.40;99.90;;;;;;5069276;28;20412;-73
2024/01/12 00:14:14;;;;;;;1999.90;999.90;;;1.40;99.90;;;;;;5088169;28;20899;-74
2024/01/12 00:16:44;;;;;;;1999.90;999.90;;;1.40;99.90;;;;;;5093107;28;20482;-73
2024/01/12 00:19:11;;;;;;;1999.90;999.90;;;1.40;99.90;;;;;;5076769;28;20427;-73
2024/01/12 00:21:37;;;;;;;1999.90;999.90;;;1.40;99.90;;;;;;5078583;28;20908;-73
2024/01/12 00:24:04;;;;;;;1999.90;999.90;;;1.30;99.90;;;;;;5093177;28;20414;-73
2024/01/12 00:26:32;;;;;;;1999.90;999.90;;;1.30;99.90;;;;;;5093335;28;20425;-74
2024/01/12 00:28:59;;;;;;;1999.90;999.90;;;1.40;99.90;;;;;;5074562;28;20427;-73
2024/01/12 00:31:26;;;;;;;1999.90;999.90;;;1.40;99.90;;;;;;5076796;28;20421;-74
2024/01/12 00:33:53;;;;;;;1999.90;999.90;;;1.40;99.90;;;;;;5093069;28;20417;-73
2024/01/12 00:36:19;;;;;;;1999.90;999.90;;;1.40;99.90;;;;;;5087390;28;20399;-74
2024/01/12 00:38:46;;;;;;;1999.90;999.90;;;1.40;99.90;;;;;;5080934;28;20475;-74
2024/01/12 00:41:13;;;;;;;1999.90;999.90;;;1.40;99.90;;;;;;5074631;28;20408;-73
2024/01/12 00:43:41;;;;;;;1999.90;999.90;;;1.50;99.90;;;;;;5092629;28;20406;-73
2024/01/12 00:46:07;;;;;;;1999.90;999.90;;;1.50;99.90;;;;;;5089941;28;20421;-74
2024/01/12 00:48:34;;;;;;;1999.90;999.90;;;1.40;99.90;;;;;;5075963;28;20433;-73
2024/01/12 00:51:01;;;;;;;1999.90;999.90;;;1.40;99.90;;;;;;5072866;28;20419;-71
2024/01/12 00:53:27;;;;;;;1999.90;999.90;;;1.50;99.90;;;;;;5092718;28;20475;-74
2024/01/12 00:55:54;;;;;;;1999.90;999.90;;;1.50;99.90;;;;;;5092701;28;20413;-73
2024/01/12 00:58:21;;;;;;;1999.90;999.90;;;1.40;99.90;;;;;;5076937;28;20430;-74
2024/01/12 01:00:49;;;;;;;1999.90;999.90;;;1.40;99.90;;;;;;5073406;28;20410;-73
2024/01/12 01:03:15;;;;;;;1999.90;999.90;;;1.40;99.90;;;;;;5083045;28;20409;-74
2024/01/12 01:05:42;;;;;;;1999.90;999.90;;;1.40;99.90;;;;;;5092449;28;20433;-73
2024/01/12 01:08:09;;;;;;;1999.90;999.90;;;1.30;99.90;;;;;;5070856;28;20427;-74
2024/01/12 01:10:35;;;;;;;1999.90;999.90;;;1.40;99.90;;;;;;5071111;28;20404;-74
2024/01/12 01:13:02;;;;;;;1999.90;999.90;;;1.30;99.90;;;;;;5075612;28;20908;-73
2024/01/12 01:15:29;;;;;;;1999.90;999.90;;;1.50;99.90;;;;;;5076695;28;20406;-74
2024/01/12 01:17:57;;;;;;;1999.90;999.90;;;1.50;99.90;;;;;;5092349;28;20422;-73
2024/01/12 01:20:23;;;;;;;1999.90;999.90;;;1.40;99.90;;;;;;5092422;28;20405;-74
2024/01/12 01:22:50;;;;;;;1999.90;999.90;;;1.40;99.90;;;;;;5074253;28;20438;-74
2024/01/12 01:25:17;;;;;;;1999.90;999.90;;;1.40;99.90;;;;;;5074289;28;20480;-73
2024/01/12 01:27:43;;;;;;;1999.90;999.90;;;1.50;99.90;;;;;;5091541;28;20414;-73
2024/01/12 01:30:11;;;;;;;1999.90;999.90;;;1.50;99.90;;;;;;5091996;28;20414;-74
2024/01/12 01:32:38;;;;;;;1999.90;999.90;;;1.50;99.90;;;;;;5075080;28;20429;-73
2024/01/12 01:35:06;;;;;;;1999.90;999.90;;;1.40;99.90;;;;;;5072500;28;20416;-73
2024/01/12 01:37:33;;;;;;;1999.90;999.90;;;1.50;99.90;;;;;;5091783;28;20414;-74
2024/01/12 01:40:01;;;;;;;1999.90;999.90;;;1.40;99.90;;;;;;5091432;28;20413;-74
2024/01/12 01:42:28;;;;;;;1999.90;999.90;;;1.30;99.90;;;;;;5079570;28;20427;-73
2024/01/12 01:44:55;;;;;;;1999.90;999.90;;;1.30;99.90;;;;;;5069404;28;20411;-73
2024/01/12 01:47:22;;;;;;;1999.90;999.90;;;1.30;99.90;;;;;;5090465;28;20410;-73
2024/01/12 01:49:48;;;;;;;1999.90;999.90;;;1.20;99.90;;;;;;5090832;28;20418;-73
2024/01/12 01:52:17;;;;;;;1999.90;999.90;;;1.20;99.90;;;;;;5082273;28;20432;-73
2024/01/12 01:54:44;;;;;;;1999.90;999.90;;;1.20;99.90;;;;;;5070650;28;20422;-72
2024/01/12 01:57:11;;;;;;;1999.90;999.90;;;1.30;99.90;;;;;;5089810;28;20410;-73
2024/01/12 01:59:38;;;;;;;1999.90;999.90;;;1.30;99.90;;;;;;5078668;28;20909;-71
2024/01/12 02:02:05;;;;;;;1999.90;999.90;;;1.20;99.90;;;;;;5074477;28;20790;-72
2024/01/12 02:04:32;;;;;;;1999.90;999.90;;;1.20;99.90;;;;;;5090766;28;20799;-72
2024/01/12 02:06:59;;;;;;;1999.90;999.90;;;1.30;99.90;;;;;;5079163;28;20838;-73
2024/01/12 02:09:28;;;;;;;1999.90;999.90;;;1.30;99.90;;;;;;5081479;28;20439;-73
2024/01/12 02:11:55;;;;;;;1999.90;999.90;;;1.30;99.90;;;;;;5070880;28;20407;-72
2024/01/12 02:14:22;;;;;;;1999.90;999.90;;;1.30;99.90;;;;;;5095165;28;20417;-73
2024/01/12 02:16:48;;;;;;;1999.90;999.90;;;1.30;99.90;;;;;;5095963;28;20483;-73
2024/01/12 02:19:15;;;;;;;1999.90;999.90;;;1.30;99.90;;;;;;5075174;28;20436;-73
2024/01/12 02:21:43;;;;;;;1999.90;999.90;;;1.40;99.90;;;;;;5070272;28;20415;-73
2024/01/12 02:24:10;;;;;;;1999.90;999.90;;;1.40;99.90;;;;;;5078395;28;20427;-74
2024/01/12 02:26:37;;;;;;;1999.90;999.90;;;1.40;99.90;;;;;;5070669;28;20449;-72
2024/01/12 02:29:03;;;;;;;1999.90;999.90;;;1.40;99.90;;;;;;5071892;28;20806;-73
2024/01/12 02:31:31;;;;;;;1999.90;999.90;;;1.40;99.90;;;;;;5074340;28;20431;-73
2024/01/12 02:33:57;;;;;;;1999.90;999.90;;;1.40;99.90;;;;;;5070257;28;20423;-73
2024/01/12 02:36:27;;;;;;;1999.90;999.90;;;1.40;99.90;;;;;;5082828;28;20405;-73
2024/01/12 02:38:56;;;;;;;1999.90;999.90;;;1.40;99.90;;;;;;5084847;28;20512;-73
2024/01/12 02:41:22;;;;;;;1999.90;999.90;;;1.30;99.90;;;;;;5069948;28;20423;-74
2024/01/12 02:43:49;;;;;;;1999.90;999.90;;;1.40;99.90;;;;;;5085634;28;20949;-73
2024/01/12 02:46:16;;;;;;;1999.90;999.90;;;1.30;99.90;;;;;;5081417;28;20423;-73
2024/01/12 02:48:42;;;;;;;1999.90;999.90;;;1.30;99.90;;;;;;5081564;28;20434;-73
2024/01/12 02:51:09;;;;;;;1999.90;999.90;;;1.30;99.90;;;;;;5073692;28;20411;-74
2024/01/12 02:53:36;;;;;;;1999.90;999.90;;;1.30;99.90;;;;;;5083908;28;20409;-74
2024/01/12 02:56:04;;;;;;;1999.90;999.90;;;1.30;99.90;;;;;;5086364;28;20406;-74
2024/01/12 02:58:31;;;;;;;1999.90;999.90;;;1.40;99.90;;;;;;5083725;28;20431;-73
2024/01/12 03:00:57;;;;;;;1999.90;999.90;;;1.40;99.90;;;;;;5069946;28;20424;-74
2024/01/12 03:03:24;;;;;;;1999.90;999.90;;;1.40;99.90;;;;;;5078392;28;20455;-73
2024/01/12 03:05:51;;;;;;;1999.90;999.90;;;1.30;99.90;;;;;;5077271;28;20422;-74
2024/01/12 03:08:17;;;;;;;1999.90;999.90;;;1.40;99.90;;;;;;5085900;28;20820;-72
2024/01/12 03:10:44;;;;;;;1999.90;999.90;;;1.40;99.90;;;;;;5073921;28;20427;-74
2024/01/12 03:13:12;;;;;;;1999.90;999.90;;;1.40;99.90;;;;;;5071526;28;20415;-74
2024/01/12 03:15:38;;;;;;;1999.90;999.90;;;1.40;99.90;;;;;;5090392;28;20455;-74
2024/01/12 03:18:05;;;;;;;1999.90;999.90;;;1.50;99.90;;;;;;5088249;28;20805;-74
2024/01/12 03:20:32;;;;;;;1999.90;999.90;;;1.50;99.90;;;;;;5081094;28;20407;-75
2024/01/12 03:22:59;;;;;;;1999.90;999.90;;;1.40;99.90;;;;;;5101021;28;20405;-76
2024/01/12 03:25:26;;;;;;;1999.90;999.90;;;1.40;99.90;;;;;;5095248;28;20439;-77
2024/01/12 03:27:52;;;;;;;1999.90;999.90;;;1.40;99.90;;;;;;5112950;28;20406;-74
2024/01/12 03:30:20;;;;;;;1999.90;999.90;;;1.50;99.90;;;;;;5067799;28;20524;-74
2024/01/12 03:32:47;;;;;;;1999.90;999.90;;;1.50;99.90;;;;;;5069604;28;20434;-74
2024/01/12 03:35:14;;;;;;;1999.90;999.90;;;1.50;99.90;;;;;;5074314;28;20419;-74
2024/01/12 03:37:41;;;;;;;1999.90;999.90;;;1.60;99.90;;;;;;5070166;28;20785;-73
2024/01/12 03:40:09;;;;;;;1999.90;999.90;;;1.50;99.90;;;;;;5090449;28;20438;-75
2024/01/12 03:42:35;;;;;;;1999.90;999.90;;;1.50;99.90;;;;;;5104239;28;21072;-77
2024/01/12 03:45:02;;;;;;;1999.90;999.90;;;1.60;99.90;;;;;;5108016;28;20512;-74
2024/01/12 03:47:30;;;;;;;1999.90;999.90;;;1.70;99.90;;;;;;5089819;28;20420;-75
2024/01/12 03:49:57;;;;;;;1999.90;999.90;;;1.70;99.90;;;;;;5074976;28;20420;-74
2024/01/12 03:52:24;;;;;;;1999.90;999.90;;;1.70;99.90;;;;;;5086464;28;20417;-73
2024/01/12 03:54:51;;;;;;;1999.90;999.90;;;1.60;99.90;;;;;;5094150;28;20505;-74
2024/01/12 03:57:17;;;;;;;1999.90;999.90;;;1.60;99.90;;;;;;5078407;28;20431;-72
2024/01/12 03:59:44;;;;;;;1999.90;999.90;;;1.60;99.90;;;;;;5073385;28;20415;-74
2024/01/12 04:02:12;;;;;;;1999.90;999.90;;;1.60;99.90;;;;;;5092247;28;20409;-74
2024/01/12 04:04:41;;;;;;;1999.90;999.90;;;1.70;99.90;;;;;;5093854;28;20815;-74
2024/01/12 04:07:08;;;;;;;1999.90;999.90;;;1.70;99.90;;;;;;5081358;28;20427;-71
2024/01/12 04:09:35;;;;;;;1999.90;999.90;;;1.70;99.90;;;;;;5078953;28;20457;-71
2024/01/12 04:12:02;;;;;;;1999.90;999.90;;;1.70;99.90;;;;;;5078948;28;20500;-74
2024/01/12 04:14:29;;;;;;;1999.90;999.90;;;1.70;99.90;;;;;;5093712;28;20417;-71
2024/01/12 04:16:55;;;;;;;1999.90;999.90;;;1.70;99.90;;;;;;5078337;28;20427;-72
2024/01/12 04:19:24;;;;;;;1999.90;999.90;;;1.60;99.90;;;;;;5079862;28;21310;-73
2024/01/12 04:21:52;;;;;;;1999.90;999.90;;;1.70;99.90;;;;;;5080395;28;20417;-72
2024/01/12 04:24:18;;;;;;;1999.90;999.90;;;1.70;99.90;;;;;;5093315;28;20426;-72
2024/01/12 04:26:45;;;;;;;1999.90;999.90;;;1.70;99.90;;;;;;5085579;28;20948;-72
2024/01/12 04:29:12;;;;;;;1999.90;999.90;;;1.70;99.90;;;;;;5073296;28;20919;-72
2024/01/12 04:31:40;;;;;;;1999.90;999.90;;;1.90;99.90;;;;;;5090965;28;20421;-73
2024/01/12 04:34:07;;;;;;;1999.90;999.90;;;1.80;99.90;;;;;;5090833;28;20497;-73
2024/01/12 04:36:34;;;;;;;1999.90;999.90;;;1.90;99.90;;;;;;5079116;28;20428;-72
2024/01/12 04:39:02;;;;;;;1999.90;999.90;;;1.90;99.90;;;;;;5078668;28;20913;-71
2024/01/12 04:41:28;;;;;;;1999.90;999.90;;;1.80;99.90;;;;;;5085425;28;20406;-72
2024/01/12 04:43:55;;;;;;;1999.90;999.90;;;1.80;99.90;;;;;;5093194;28;20463;-73
2024/01/12 04:46:22;;;;;;;1999.90;999.90;;;1.80;99.90;;;;;;5081704;28;20539;-73
2024/01/12 04:48:49;;;;;;;1999.90;999.90;;;1.90;99.90;;;;;;5072552;28;20910;-73
2024/01/12 04:51:15;;;;;;;1999.90;999.90;;;1.80;99.90;;;;;;5083592;28;20764;-73
2024/01/12 04:53:42;;;;;;;1999.90;999.90;;;1.90;99.90;;;;;;5095205;28;20436;-72
2024/01/12 04:56:10;;;;;;;1999.90;999.90;;;1.90;99.90;;;;;;5094896;28;20402;-74
2024/01/12 04:58:38;;;;;;;1999.90;999.90;;;1.90;99.90;;;;;;5073290;28;20416;-72
2024/01/12 05:01:05;;;;;;;1999.90;999.90;;;1.80;99.90;;;;;;5081335;28;20440;-72
2024/01/12 05:03:31;;;;;;;1999.90;999.90;;;1.70;99.90;;;;;;5092557;28;20830;-72
2024/01/12 05:05:58;;;;;;;1999.90;999.90;;;1.80;99.90;;;;;;5092620;28;20780;-73
2024/01/12 05:08:25;;;;;;;1999.90;999.90;;;1.70;99.90;;;;;;5071584;28;20424;-72
2024/01/12 05:10:51;;;;;;;1999.90;999.90;;;1.70;99.90;;;;;;5071897;28;20410;-72
2024/01/12 05:13:19;;;;;;;1999.90;999.90;;;1.70;99.90;;;;;;5090863;28;20417;-73
2024/01/12 05:15:46;;;;;;;1999.90;999.90;;;1.60;99.90;;;;;;5078755;28;20414;-72
2024/01/12 05:18:13;;;;;;;1999.90;999.90;;;1.70;99.90;;;;;;5073550;28;20841;-74
2024/01/12 05:20:39;;;;;;;1999.90;999.90;;;1.70;99.90;;;;;;5077540;28;20410;-74
2024/01/12 05:23:06;;;;;;;1999.90;999.90;;;1.70;99.90;;;;;;5092075;28;20413;-73
2024/01/12 05:25:33;;;;;;;1999.90;999.90;;;1.70;99.90;;;;;;5076274;28;20411;-73
2024/01/12 05:27:59;;;;;;;1999.90;999.90;;;1.70;99.90;;;;;;5072319;28;20785;-74
2024/01/12 05:30:27;;;;;;;1999.90;999.90;;;1.70;99.90;;;;;;5083745;28;20432;-75
2024/01/12 05:32:54;;;;;;;1999.90;999.90;;;1.80;99.90;;;;;;5092036;28;20409;-73
2024/01/12 05:35:21;;;;;;;1999.90;999.90;;;1.80;99.90;;;;;;5081627;28;20413;-71
2024/01/12 05:37:48;;;;;;;1999.90;999.90;;;1.70;99.90;;;;;;5071853;28;20428;-73
2024/01/12 05:40:14;;;;;;;1999.90;999.90;;;1.70;99.90;;;;;;5075753;28;20833;-73
2024/01/12 05:42:41;;;;;;;1999.90;999.90;;;1.80;99.90;;;;;;5082512;28;20437;-73
2024/01/12 05:45:08;;;;;;;1999.90;999.90;;;1.80;99.90;;;;;;5069310;28;20431;-71
2024/01/12 05:47:37;;;;;;;1999.90;999.90;;;1.70;99.90;;;;;;5071470;28;20480;-73
2024/01/12 05:50:04;;;;;;;1999.90;999.90;;;1.60;99.90;;;;;;5088601;28;20493;-73
2024/01/12 05:52:33;;;;;;;1999.90;999.90;;;1.70;99.90;;;;;;5088328;28;20518;-75
2024/01/12 05:55:00;;;;;;;1999.90;999.90;;;1.60;99.90;;;;;;5081727;28;20434;-73
2024/01/12 05:57:27;;;;;;;1999.90;999.90;;;1.60;99.90;;;;;;5071730;28;20917;-74
2024/01/12 05:59:53;;;;;;;1999.90;999.90;;;1.70;99.90;;;;;;5075917;28;20431;-74
2024/01/12 06:02:20;;;;;;;1999.90;999.90;;;1.70;99.90;;;;;;5079234;28;20416;-74
2024/01/12 06:04:48;;;;;;;1999.90;999.90;;;1.70;99.90;;;;;;5086709;28;20410;-74
2024/01/12 06:07:15;;;;;;;1999.90;999.90;;;1.80;99.90;;;;;;5091539;28;20426;-73
2024/01/12 06:09:42;;;;;;;1999.90;999.90;;;1.80;99.90;;;;;;5076602;28;20435;-72
2024/01/12 06:12:11;;;;;;;1999.90;999.90;;;1.60;99.90;;;;;;5068796;28;20428;-73
2024/01/12 06:14:37;;;;;;;1999.90;999.90;;;1.60;99.90;;;;;;5070782;28;20481;-72
2024/01/12 06:17:04;;;;;;;1999.90;999.90;;;1.60;99.90;;;;;;5070450;28;20424;-73
2024/01/12 06:19:31;;;;;;;1999.90;999.90;;;1.60;99.90;;;;;;5069276;28;20467;-74
2024/01/12 06:21:59;;;;;;;1999.90;999.90;;;1.60;99.90;;;;;;5070178;28;20434;-73
2024/01/12 06:24:26;;;;;;;1999.90;999.90;;;1.70;99.90;;;;;;5070435;28;20485;-73
2024/01/12 06:26:53;;;;;;;1999.90;999.90;;;1.80;99.90;;;;;;5070853;28;20435;-73
2024/01/12 06:29:19;;;;;;;1999.90;999.90;;;1.60;99.90;;;;;;5089143;28;20428;-72
2024/01/12 06:31:46;;;;;;;1999.90;999.90;;;1.70;99.90;;;;;;5083580;28;20790;-71
2024/01/12 06:34:13;;;;;;;1999.90;999.90;;;1.70;99.90;;;;;;5070695;28;20412;-72
2024/01/12 06:36:43;;;;;;;1999.90;999.90;;;1.70;99.90;;;;;;5077372;28;20884;-72
2024/01/12 06:39:11;;;;;;;1999.90;999.90;;;1.90;99.90;;;;;;5092164;28;20445;-73
2024/01/12 06:41:43;;;;;;;1999.90;999.90;;;1.80;99.90;;;;;;5085359;28;20908;-73
2024/01/12 06:44:10;;;;;;;1999.90;999.90;;;1.90;99.90;;;;;;5070436;28;20435;-72
2024/01/12 06:46:41;;;;;;;1999.90;999.90;;;1.80;99.90;;;;;;5075646;28;20461;-72
2024/01/12 06:49:08;;;;;;;1999.90;999.90;;;1.80;99.90;;;;;;5090845;28;20413;-70
2024/01/12 06:51:35;;;;;;;1999.90;999.90;;;1.80;99.90;;;;;;5084209;28;20436;-74
2024/01/12 06:54:01;;;;;;;1999.90;999.90;;;1.70;99.90;;;;;;5071131;28;20556;-74
2024/01/12 06:56:30;;;;;;;1999.90;999.90;;;1.70;99.90;;;;;;5070229;28;20465;-72
2024/01/12 06:58:57;;;;;;;1999.90;999.90;;;1.80;99.90;;;;;;5078414;28;20902;-73
2024/01/12 07:01:24;;;;;;;1999.90;999.90;;;1.90;99.90;;;;;;5086843;28;20414;-71
2024/01/12 07:03:51;;;;;;;1999.90;999.90;;;1.50;99.90;;;;;;5069706;28;20435;-72
2024/01/12 07:06:17;;;;;;;1999.90;999.90;;;1.90;99.90;;;;;;5072459;28;20980;-72
2024/01/12 07:08:44;;;;;;;1999.90;999.90;;;1.80;99.90;;;;;;5090131;28;20421;-71
2024/01/12 07:11:11;;;;;;;1999.90;999.90;;;1.80;99.90;;;;;;5090148;28;20410;-71
2024/01/12 07:13:39;;;;;;;1999.90;999.90;;;1.90;99.90;;;;;;5070539;28;20423;-74
2024/01/12 07:16:06;;;;;;;1999.90;999.90;;;1.90;99.90;;;;;;5075173;28;20925;-72
2024/01/12 07:18:32;;;;;;;1999.90;999.90;;;1.80;99.90;;;;;;5070328;28;21008;-72
2024/01/12 07:21:03;;;;;;;1999.90;999.90;;;1.90;99.90;;;;;;5069979;28;20415;-74
2024/01/12 07:23:30;;;;;;;1999.90;999.90;;;1.80;99.90;;;;;;5069850;28;20432;-74
2024/01/12 07:25:57;;;;;;;1999.90;999.90;;;1.90;99.90;;;;;;5073976;28;20775;-72
2024/01/12 07:28:24;;;;;;;1999.90;999.90;;;1.90;99.90;;;;;;5095805;28;20499;-73
2024/01/12 07:30:52;;;;;;;1999.90;999.90;;;1.90;99.90;;;;;;5101509;28;20395;-73
2024/01/12 07:33:19;;;;;;;1999.90;999.90;;;1.90;99.90;;;;;;5074374;28;20475;-71
2024/01/12 07:35:46;;;;;;;1999.90;999.90;;;1.80;99.90;;;;;;5075137;28;20407;-71
2024/01/12 07:38:13;;;;;;;1999.90;999.90;;;1.80;99.90;;;;;;5075652;28;20457;-73
2024/01/12 07:40:39;;;;;;;1999.90;999.90;;;1.80;99.90;;;;;;5094227;28;20412;-72
2024/01/12 07:43:06;;;;;;;1999.90;999.90;;;2.00;99.90;;;;;;5079133;28;20435;-72
2024/01/12 07:45:32;;;;;;;1999.90;999.90;;;2.00;99.90;;;;;;5073970;28;20441;-73
2024/01/12 07:48:01;;;;;;;1999.90;999.90;;;1.80;99.90;;;;;;5074056;28;20472;-71
2024/01/12 07:50:27;;;;;;;1999.90;999.90;;;1.90;99.90;;;;;;5073995;28;20490;-73
2024/01/12 07:52:54;;;;;;;1999.90;999.90;;;2.00;99.90;;;;;;5075184;28;20427;-73
2024/01/12 07:55:21;;;;;;;1999.90;999.90;;;2.10;99.90;;;;;;5073085;28;20478;-72
2024/01/12 07:57:47;;;;;;;1999.90;999.90;;;2.10;99.90;;;;;;5070617;28;20430;-74
2024/01/12 08:00:15;;;;;;;1999.90;999.90;;;2.20;99.90;;;;;;5072306;28;20438;-74
2024/01/12 08:02:42;;;;;;;1999.90;999.90;;;2.10;99.90;;;;;;5087740;28;20414;-73
2024/01/12 08:05:10;;;;;;;1999.90;999.90;;;2.00;99.90;;;;;;5093931;28;20461;-74
2024/01/12 08:07:37;;;;;;;1999.90;999.90;;;2.10;99.90;;;;;;5084794;28;20442;-74
2024/01/12 08:10:04;;;;;;;1999.90;999.90;;;2.10;99.90;;;;;;5071543;28;20434;-75
2024/01/12 08:12:31;;;;;;;1999.90;999.90;;;2.10;99.90;;;;;;5073736;28;20407;-74
2024/01/12 08:14:58;;;;;;;1999.90;999.90;;;2.20;99.90;;;;;;5081485;28;20402;-72
2024/01/12 08:17:25;;;;;;;1999.90;999.90;;;2.30;99.90;;;;;;5093731;28;20410;-72
2024/01/12 08:19:51;;;;;;;1999.90;999.90;;;2.30;99.90;;;;;;5093222;28;20428;-71
2024/01/12 08:22:19;;;;;;;1999.90;999.90;;;2.40;99.90;;;;;;5092941;28;20414;-71
2024/01/12 08:24:47;;;;;;;1999.90;999.90;;;2.30;99.90;;;;;;5085998;28;20427;-71
2024/01/12 08:27:14;;;;;;;1999.90;999.90;;;2.30;99.90;;;;;;5071884;28;20516;-74
2024/01/12 08:29:40;;;;;;;1999.90;999.90;;;2.30;99.90;;;;;;5078633;28;20429;-73
2024/01/12 08:32:07;;;;;;;1999.90;999.90;;;2.30;99.90;;;;;;5093201;28;20414;-74
2024/01/12 08:34:34;;;;;;;1999.90;999.90;;;2.10;99.90;;;;;;5081110;28;20450;-72
2024/01/12 08:37:00;;;;;;;1999.90;999.90;;;2.00;99.90;;;;;;5074186;28;20404;-72
2024/01/12 08:39:29;;;;;;;1999.90;999.90;;;2.10;99.90;;;;;;5073598;28;21086;-72
2024/01/12 08:41:56;;;;;;;1999.90;999.90;;;2.20;99.90;;;;;;5075094;28;20494;-71
2024/01/12 08:44:23;;;;;;;1999.90;999.90;;;2.20;99.90;;;;;;5075921;28;20433;-73
2024/01/12 08:46:50;;;;;;;1999.90;999.90;;;2.20;99.90;;;;;;5072773;28;20494;-72
2024/01/12 08:49:16;;;;;;;1999.90;999.90;;;2.30;99.90;;;;;;5083545;28;20433;-73
2024/01/12 08:51:43;;;;;;;1999.90;999.90;;;2.40;99.90;;;;;;5093356;28;20406;-72
2024/01/12 08:54:10;;;;;;;1999.90;999.90;;;2.50;99.90;;;;;;5074691;28;20438;-73
2024/01/12 08:56:38;;;;;;;1999.90;999.90;;;2.50;99.90;;;;;;5078182;28;20535;-72
2024/01/12 08:59:04;;;;;;;1999.90;999.90;;;2.80;99.90;;;;;;5093299;28;20436;-74
2024/01/12 09:01:31;;;;;;;1999.90;999.90;;;2.70;99.90;;;;;;5093196;28;20435;-71
2024/01/12 09:03:59;;;;;;;1999.90;999.90;;;2.90;99.90;;;;;;5080547;28;20435;-71
2024/01/12 09:06:26;;;;;;;1999.90;999.90;;;2.80;99.90;;;;;;5088308;28;20436;-73
2024/01/12 09:08:52;;;;;;;1999.90;999.90;;;2.80;99.90;;;;;;5102460;28;20422;-71
2024/01/12 09:11:19;;;;;;;1999.90;999.90;;;2.80;99.90;;;;;;5101499;28;20409;-71
2024/01/12 09:13:47;;;;;;;1999.90;999.90;;;2.70;99.90;;;;;;5096428;28;20457;-73
2024/01/12 09:16:15;;;;;;;1999.90;999.90;;;2.80;99.90;;;;;;5077980;28;20763;-74
2024/01/12 09:18:44;;;;;;;1999.90;999.90;;;2.70;99.90;;;;;;5085796;28;20799;-72
2024/01/12 09:21:14;;;;;;;1999.90;999.90;;;2.70;99.90;;;;;;5090944;28;20441;-70
2024/01/12 09:23:41;;;;;;;1999.90;999.90;;;2.60;99.90;;;;;;5081289;28;20458;-72
2024/01/12 09:26:09;;;;;;;1999.90;999.90;;;2.60;99.90;;;;;;5071469;28;20407;-71
2024/01/12 09:28:36;;;;;;;1999.90;999.90;;;2.70;99.90;;;;;;5085080;28;20421;-72
2024/01/12 09:31:04;;;;;;;1999.90;999.90;;;2.70;99.90;;;;;;5092016;28;20410;-73
2024/01/12 09:33:31;;;;;;;1999.90;999.90;;;3.10;99.90;;;;;;5083179;28;20517;-72
2024/01/12 09:35:58;;;;;;;1999.90;999.90;;;2.70;99.90;;;;;;5072424;28;20478;-74
2024/01/12 09:38:24;;;;;;;1999.90;999.90;;;2.80;99.90;;;;;;5075127;28;21087;-72
2024/01/12 09:40:52;;;;;;;1999.90;999.90;;;2.90;99.90;;;;;;5071310;28;20457;-73
2024/01/12 09:43:22;;;;;;;1999.90;999.90;;;3.50;99.90;;;;;;5065184;28;21163;-74
2024/01/12 09:45:51;;;;;;;1999.90;999.90;;;2.90;99.90;;;;;;5069367;28;20435;-73
2024/01/12 09:48:20;;;;;;;1999.90;999.90;;;2.90;99.90;;;;;;5073201;28;20428;-72
2024/01/12 09:50:50;;;;;;;1999.90;999.90;;;2.90;99.90;;;;;;5071776;28;20483;-73
2024/01/12 09:53:16;;;;;;;1999.90;999.90;;;2.80;99.90;;;;;;5071392;28;20427;-74
2024/01/12 09:55:43;;;;;;;1999.90;999.90;;;2.90;99.90;;;;;;5070979;28;20423;-72
2024/01/12 09:58:11;;;;;;;1999.90;999.90;;;2.90;99.90;;;;;;5075588;28;20400;-74
2024/01/12 10:00:38;;;;;;;1999.90;999.90;;;2.90;99.90;;;;;;5074768;28;20532;-74
2024/01/12 10:03:06;;;;;;;1999.90;999.90;;;2.90;99.90;;;;;;5084907;28;20411;-72
2024/01/12 10:05:37;;;;;;;1999.90;999.90;;;2.90;99.90;;;;;;5076341;28;20458;-72
2024/01/12 10:08:05;;;;;;;1999.90;999.90;;;3.00;99.90;;;;;;5071650;28;20462;-73
2024/01/12 10:10:31;;;;;;;1999.90;999.90;;;2.90;99.90;;;;;;5078854;28;20413;-72
2024/01/12 10:12:58;;;;;;;1999.90;999.90;;;2.80;99.90;;;;;;5072766;28;20434;-74
2024/01/12 10:15:26;;;;;;;1999.90;999.90;;;2.90;99.90;;;;;;5071765;28;20429;-73
2024/01/12 10:17:53;;;;;;;1999.90;999.90;;;2.90;99.90;;;;;;5070977;28;20427;-74
2024/01/12 10:20:20;;;;;;;1999.90;999.90;;;2.90;99.90;;;;;;5068277;28;20415;-73
2024/01/12 10:22:55;;;;;;;1999.90;999.90;;;3.00;99.90;;;;;;5069529;28;20456;-73
2024/01/12 10:25:22;;;;;;;1999.90;999.90;;;3.00;99.90;;;;;;5072606;28;20456;-72
2024/01/12 10:27:55;;;;;;;1999.90;999.90;;;3.00;99.90;;;;;;5072940;28;20840;-72
2024/01/12 10:30:21;;;;;;;1999.90;999.90;;;3.00;99.90;;;;;;5071351;28;20415;-74
2024/01/12 10:32:50;;;;;;;1999.90;999.90;;;3.00;99.90;;;;;;5075878;28;20419;-73
2024/01/12 10:35:17;;;;;;;1999.90;999.90;;;3.00;99.90;;;;;;5073058;28;20419;-70
2024/01/12 10:37:45;;;;;;;1999.90;999.90;;;3.10;99.90;;;;;;5073008;28;20428;-72
2024/01/12 10:40:15;;;;;;;1999.90;999.90;;;3.20;99.90;;;;;;5071414;28;20446;-73
2024/01/12 10:42:47;;;;;;;1999.90;999.90;;;3.20;99.90;;;;;;5074873;28;20490;-74
2024/01/12 10:45:14;;;;;;;1999.90;999.90;;;3.20;99.90;;;;;;5075420;28;20585;-73
2024/01/12 10:47:48;;;;;;;1999.90;999.90;;;3.40;99.90;;;;;;5074067;28;20484;-73
2024/01/12 10:50:17;;;;;;;1999.90;999.90;;;3.40;99.90;;;;;;5068764;28;20894;-73
2024/01/12 10:52:53;;;;;;;1999.90;999.90;;;3.50;99.90;;;;;;5075890;28;20410;-73
2024/01/12 10:55:23;;;;;;;1999.90;999.90;;;3.30;99.90;;;;;;5076950;28;20484;-73
2024/01/12 10:57:51;;;;;;;1999.90;999.90;;;3.20;99.90;;;;;;5075212;28;20415;-73
2024/01/12 11:00:19;;;;;;;1999.90;999.90;;;3.30;99.90;;;;;;5069595;28;20418;-73
2024/01/12 11:02:49;;;;;;;1999.90;999.90;;;3.30;99.90;;;;;;5076449;28;20435;-72
2024/01/12 11:05:17;;;;;;;1999.90;999.90;;;3.40;99.90;;;;;;5076314;28;20415;-72
2024/01/12 11:07:45;;;;;;;1999.90;999.90;;;3.30;99.90;;;;;;5079004;28;20497;-72
2024/01/12 11:10:13;;;;;;;1999.90;999.90;;;3.30;99.90;;;;;;5075493;28;20420;-72
2024/01/12 11:12:42;;;;;;;1999.90;999.90;;;3.20;99.90;;;;;;5074920;28;20431;-73
2024/01/12 11:15:09;;;;;;;1999.90;999.90;;;3.20;99.90;;;;;;5070141;28;20401;-72
2024/01/12 11:17:37;;;;;;;1999.90;999.90;;;3.10;99.90;;;;;;5074324;28;20415;-73
2024/01/12 11:20:06;;;;;;;1999.90;999.90;;;3.10;99.90;;;;;;5074048;28;20403;-73
2024/01/12 11:22:33;;;;;;;1999.90;999.90;;;3.10;99.90;;;;;;5067145;28;20510;-72
2024/01/12 11:25:00;;;;;;;1999.90;999.90;;;3.10;99.90;;;;;;5079145;28;20439;-72
2024/01/12 11:27:32;;;;;;;1999.90;999.90;;;3.10;99.90;;;;;;5072985;28;20403;-73
2024/01/12 11:30:01;;;;;;;1999.90;999.90;;;3.00;99.90;;;;;;5078675;28;20446;-72
2024/01/12 11:32:28;;;;;;;1999.90;999.90;;;3.10;99.90;;;;;;5085406;28;21007;-74
2024/01/12 11:35:10;;;;;;;1999.90;999.90;;;3.20;99.90;;;;;;5075185;28;20468;-73
2024/01/12 11:37:38;;;;;;;1999.90;999.90;;;3.00;99.90;;;;;;5069935;28;20419;-73
2024/01/12 11:40:09;;;;;;;1999.90;999.90;;;3.10;99.90;;;;;;5087262;28;20441;-75
2024/01/12 11:42:36;;;;;;;1999.90;999.90;;;3.10;99.90;;;;;;5084400;28;20483;-73
2024/01/12 11:45:09;;;;;;;1999.90;999.90;;;3.30;99.90;;;;;;5073824;28;20493;-73
2024/01/12 11:47:36;;;;;;;1999.90;999.90;;;3.50;99.90;;;;;;5069794;28;20443;-74
2024/01/12 11:50:04;;;;;;;1999.90;999.90;;;3.40;99.90;;;;;;5072265;28;20917;-74
2024/01/12 11:52:32;;;;;;;1999.90;999.90;;;3.40;99.90;;;;;;5068296;28;20986;-73
2024/01/12 11:54:58;;;;;;;1999.90;999.90;;;3.40;99.90;;;;;;5073450;28;20416;-73
2024/01/12 11:57:25;;;;;;;1999.90;999.90;;;3.40;99.90;;;;;;5073887;28;20777;-74
2024/01/12 11:59:53;;;;;;;1999.90;999.90;;;3.30;99.90;;;;;;5072113;28;20438;-73
2024/01/12 12:02:23;;;;;;;1999.90;999.90;;;3.30;99.90;;;;;;5068580;28;20944;-73
2024/01/12 12:04:51;;;;;;;1999.90;999.90;;;3.20;99.90;;;;;;5068223;28;20442;-72
2024/01/12 12:07:18;;;;;;;1999.90;999.90;;;3.10;99.90;;;;;;5069717;28;20423;-70
2024/01/12 12:09:46;;;;;;;1999.90;999.90;;;3.20;99.90;;;;;;5081741;28;20425;-70